Time;durP1;ratioP1;P1;durP2;ratioP2;P2;SDS_P1;SDS_P2;PMS_P1;PMS_P2;Temp;Humidity;BMP_temperature;BMP_pressure;BME280_temperature;BME280_humidity;BME280_pressure;Samples;Min_cycle;Max_cycle;Signal;HPM_P1;HPM_P2
2022/07/19 00:00:13;;;;;;;1.83;1.47;;;26.00;45.80;;;;;;5088572;28;20463;-78
2022/07/19 00:02:39;;;;;;;1.83;1.30;;;26.10;45.90;;;;;;5085103;28;20774;-78
2022/07/19 00:05:07;;;;;;;1.80;1.40;;;26.10;45.90;;;;;;5086664;28;20747;-78
2022/07/19 00:07:33;;;;;;;1.67;1.57;;;26.10;45.90;;;;;;5063080;28;20978;-79
2022/07/19 00:09:59;;;;;;;2.30;1.83;;;26.10;45.90;;;;;;5065300;28;20424;-78
2022/07/19 00:12:25;;;;;;;1.70;1.60;;;26.00;45.90;;;;;;5087126;28;20417;-79
2022/07/19 00:14:51;;;;;;;2.60;1.63;;;26.10;45.90;;;;;;5087322;28;20210;-79
2022/07/19 00:17:17;;;;;;;2.00;1.40;;;26.10;45.90;;;;;;5069745;28;20198;-78
2022/07/19 00:19:42;;;;;;;2.00;1.57;;;26.10;45.90;;;;;;5087892;28;20204;-79
2022/07/19 00:22:08;;;;;;;2.40;1.40;;;26.10;45.90;;;;;;5064702;28;20227;-78
2022/07/19 00:24:34;;;;;;;2.07;1.53;;;26.10;45.90;;;;;;5087606;28;20178;-79
2022/07/19 00:30:22;;;;;;;1.87;1.60;;;26.10;45.90;;;;;;5084793;28;20193;-79
2022/07/19 00:32:48;;;;;;;1.97;1.40;;;26.10;45.90;;;;;;5081493;28;20480;-78
2022/07/19 00:35:13;;;;;;;2.30;1.30;;;26.00;45.90;;;;;;5057345;28;20437;-79
2022/07/19 00:37:39;;;;;;;1.57;1.40;;;26.00;45.90;;;;;;5058376;28;20221;-78
2022/07/19 00:40:07;;;;;;;2.00;1.57;;;26.10;45.90;;;;;;5058410;28;20219;-79
2022/07/19 00:42:33;;;;;;;1.77;1.37;;;26.10;45.90;;;;;;5068720;28;20209;-79
2022/07/19 00:44:59;;;;;;;2.80;1.60;;;26.10;45.90;;;;;;5070321;28;20914;-79
2022/07/19 00:47:24;;;;;;;2.33;1.70;;;26.10;45.90;;;;;;5068420;28;20217;-78
2022/07/19 00:49:50;;;;;;;1.83;1.20;;;26.10;45.90;;;;;;5068495;28;20186;-78
2022/07/19 00:52:18;;;;;;;1.77;1.40;;;26.10;45.90;;;;;;5087067;28;20438;-78
2022/07/19 00:54:48;;;;;;;2.00;1.77;;;26.10;45.90;;;;;;5086451;28;20585;-78
2022/07/19 00:57:15;;;;;;;2.00;1.50;;;26.10;45.90;;;;;;5087495;28;20429;-79
2022/07/19 00:59:43;;;;;;;2.27;1.53;;;26.10;45.90;;;;;;5067177;28;20417;-79
2022/07/19 01:02:12;;;;;;;2.13;1.60;;;26.10;45.90;;;;;;5086642;28;20470;-79
2022/07/19 01:04:38;;;;;;;1.27;1.13;;;26.10;45.90;;;;;;5068600;28;20424;-78
2022/07/19 01:07:04;;;;;;;2.10;1.47;;;26.10;45.90;;;;;;5084185;28;20933;-79
2022/07/19 01:09:30;;;;;;;1.43;1.30;;;26.10;45.90;;;;;;5068086;28;20186;-80
2022/07/19 01:11:56;;;;;;;1.80;1.30;;;26.10;45.90;;;;;;5069172;28;20451;-78
2022/07/19 01:14:22;;;;;;;1.90;1.70;;;26.10;45.90;;;;;;5085122;28;20213;-78
2022/07/19 01:16:48;;;;;;;2.30;1.53;;;26.10;45.90;;;;;;5079071;28;20436;-78
2022/07/19 01:19:14;;;;;;;2.20;1.63;;;26.10;45.90;;;;;;5071918;28;20183;-78
2022/07/19 01:21:41;;;;;;;1.67;1.47;;;26.10;45.90;;;;;;5075502;28;20206;-78
2022/07/19 01:24:06;;;;;;;1.90;1.40;;;26.10;45.90;;;;;;5073585;28;20186;-78
2022/07/19 01:26:32;;;;;;;2.00;1.50;;;26.10;45.90;;;;;;5075497;28;20417;-78
2022/07/19 01:29:36;;;;;;;1.50;1.30;;;26.10;45.90;;;;;;5073255;28;20209;-78
2022/07/19 01:32:03;;;;;;;1.77;1.33;;;26.10;45.90;;;;;;5084839;28;20182;-78
2022/07/19 01:34:29;;;;;;;2.77;1.47;;;26.10;45.90;;;;;;5076729;28;20415;-78
2022/07/19 01:36:55;;;;;;;1.70;1.33;;;26.00;45.90;;;;;;5072554;28;20429;-78
2022/07/19 01:39:23;;;;;;;1.90;1.40;;;26.00;45.90;;;;;;5057633;28;20222;-78
2022/07/19 01:41:49;;;;;;;1.50;1.40;;;26.10;45.90;;;;;;5056571;28;20676;-78
2022/07/19 01:44:15;;;;;;;1.73;1.20;;;26.10;45.90;;;;;;5075196;28;20448;-77
2022/07/19 01:46:41;;;;;;;1.70;1.17;;;26.10;45.90;;;;;;5075634;28;20189;-78
2022/07/19 01:49:07;;;;;;;1.77;1.30;;;26.10;45.90;;;;;;5056583;28;20511;-78
2022/07/19 01:51:33;;;;;;;2.07;1.40;;;26.10;45.90;;;;;;5060312;28;20632;-77
2022/07/19 01:53:59;;;;;;;2.00;1.60;;;26.10;46.00;;;;;;5060520;28;20186;-78
2022/07/19 01:56:25;;;;;;;1.70;1.30;;;26.10;45.90;;;;;;5073845;28;20555;-78
2022/07/19 01:58:50;;;;;;;1.97;1.50;;;26.10;45.90;;;;;;5057544;28;20413;-77
2022/07/19 02:01:16;;;;;;;1.90;1.47;;;26.10;45.90;;;;;;5060287;28;20348;-78
2022/07/19 02:03:42;;;;;;;1.70;1.43;;;26.10;45.90;;;;;;5059065;28;20274;-78
2022/07/19 02:09:30;;;;;;;1.77;1.37;;;26.10;45.90;;;;;;5076803;28;20223;-78
2022/07/19 02:15:18;;;;;;;1.83;1.40;;;26.10;46.00;;;;;;5075665;28;20225;-78
2022/07/19 02:17:43;;;;;;;1.70;1.40;;;26.00;46.00;;;;;;5059650;28;20433;-78
2022/07/19 02:20:10;;;;;;;2.43;1.50;;;26.00;46.00;;;;;;5057552;28;20691;-78
2022/07/19 02:22:36;;;;;;;1.83;1.40;;;26.00;45.90;;;;;;5079646;28;20216;-78
2022/07/19 02:25:01;;;;;;;2.40;1.70;;;26.00;45.90;;;;;;5057319;28;20421;-78
2022/07/19 02:27:28;;;;;;;1.80;1.50;;;26.00;45.90;;;;;;5077045;28;20228;-78
2022/07/19 02:29:54;;;;;;;1.30;1.00;;;26.00;46.00;;;;;;5077165;28;20178;-78
2022/07/19 02:32:20;;;;;;;1.53;1.43;;;26.00;45.90;;;;;;5078873;28;20418;-78
2022/07/19 02:34:46;;;;;;;2.23;1.33;;;26.00;45.90;;;;;;5070164;28;20184;-78
2022/07/19 02:37:11;;;;;;;1.40;1.20;;;26.00;45.90;;;;;;5087642;28;20251;-77
2022/07/19 02:39:38;;;;;;;1.50;1.40;;;26.10;46.00;;;;;;5068979;28;20185;-77
2022/07/19 02:42:04;;;;;;;1.87;1.40;;;26.00;45.90;;;;;;5069056;28;20566;-78
2022/07/19 02:44:30;;;;;;;2.03;1.73;;;26.10;46.00;;;;;;5086959;28;20417;-78
2022/07/19 02:46:55;;;;;;;1.50;1.40;;;26.00;45.90;;;;;;5055824;28;20187;-77
2022/07/19 02:49:22;;;;;;;1.50;1.33;;;26.00;45.90;;;;;;5066671;28;20175;-78
2022/07/19 02:51:48;;;;;;;1.87;1.37;;;26.10;46.00;;;;;;5066772;28;20238;-78
2022/07/19 02:54:14;;;;;;;1.83;1.60;;;26.10;46.00;;;;;;5067019;28;20402;-78
2022/07/19 02:56:40;;;;;;;1.70;1.40;;;26.00;45.90;;;;;;5066965;28;20417;-77
2022/07/19 02:59:06;;;;;;;2.10;1.50;;;26.10;46.00;;;;;;5049736;28;20414;-78
2022/07/19 03:01:31;;;;;;;1.70;1.40;;;26.10;46.00;;;;;;5066554;28;20205;-79
2022/07/19 03:03:58;;;;;;;1.97;1.20;;;26.00;45.90;;;;;;5049289;28;20441;-79
2022/07/19 03:06:24;;;;;;;1.60;1.20;;;26.10;46.00;;;;;;5049504;28;20183;-79
2022/07/19 03:08:50;;;;;;;2.00;1.37;;;26.10;46.00;;;;;;5066304;28;20408;-79
2022/07/19 03:11:15;;;;;;;2.07;1.30;;;26.10;46.00;;;;;;5065890;28;20414;-78
2022/07/19 03:13:41;;;;;;;2.07;1.50;;;26.10;46.00;;;;;;5049846;28;20183;-79
2022/07/19 03:19:29;;;;;;;2.30;1.40;;;26.10;46.00;;;;;;5067493;28;20262;-79
2022/07/19 03:21:55;;;;;;;2.20;1.77;;;26.00;46.00;;;;;;5067911;28;20453;-78
2022/07/19 03:24:21;;;;;;;1.47;1.37;;;26.00;46.00;;;;;;5052992;28;20456;-79
2022/07/19 03:26:47;;;;;;;1.90;1.43;;;26.00;46.00;;;;;;5052985;28;20418;-79
2022/07/19 03:29:46;;;;;;;2.10;1.40;;;26.10;46.00;;;;;;5053364;28;20425;-79
2022/07/19 03:32:12;;;;;;;2.30;2.10;;;26.00;45.90;;;;;;5071166;28;20159;-79
2022/07/19 03:34:38;;;;;;;1.90;1.20;;;26.00;46.00;;;;;;5071035;28;20428;-79
2022/07/19 03:37:04;;;;;;;1.40;1.30;;;26.00;46.00;;;;;;5053683;28;20210;-79
2022/07/19 03:39:29;;;;;;;3.50;1.20;;;26.10;46.00;;;;;;5087083;28;20179;-79
2022/07/19 03:41:55;;;;;;;1.80;1.50;;;26.00;46.00;;;;;;5071104;28;20198;-79
2022/07/19 03:47:43;;;;;;;1.70;1.53;;;26.10;46.00;;;;;;5070723;28;20209;-79
2022/07/19 03:50:09;;;;;;;2.63;1.40;;;26.00;46.10;;;;;;5070918;28;20463;-79
2022/07/19 03:52:35;;;;;;;2.20;1.93;;;26.00;46.00;;;;;;5052961;28;20663;-78
2022/07/19 03:55:01;;;;;;;1.77;1.67;;;26.00;46.00;;;;;;5052649;28;20432;-79
2022/07/19 03:57:27;;;;;;;2.10;1.53;;;26.00;46.00;;;;;;5052354;28;20413;-79
2022/07/19 03:59:52;;;;;;;3.57;1.43;;;26.00;46.00;;;;;;5051750;28;20203;-79
2022/07/19 04:02:18;;;;;;;1.93;1.57;;;26.00;46.00;;;;;;5069712;28;20174;-79
2022/07/19 04:04:44;;;;;;;2.10;1.53;;;26.00;46.00;;;;;;5052181;28;20206;-79
2022/07/19 04:07:09;;;;;;;2.40;1.40;;;26.00;46.00;;;;;;5052380;28;20636;-79
2022/07/19 04:09:35;;;;;;;1.50;1.30;;;26.10;46.10;;;;;;5052236;28;20214;-79
2022/07/19 04:12:01;;;;;;;2.67;1.53;;;26.10;46.10;;;;;;5084777;28;20233;-78
2022/07/19 04:17:49;;;;;;;3.17;1.90;;;26.00;46.00;;;;;;5069314;28;20213;-79
2022/07/19 04:20:14;;;;;;;1.70;1.60;;;26.00;46.00;;;;;;5084214;28;20469;-78
2022/07/19 04:22:40;;;;;;;1.73;1.40;;;26.00;46.00;;;;;;5069503;28;20202;-78
2022/07/19 04:25:06;;;;;;;2.33;1.47;;;26.00;46.00;;;;;;5069559;28;20186;-78
2022/07/19 04:27:32;;;;;;;2.10;1.50;;;26.10;46.10;;;;;;5051009;28;20191;-78
2022/07/19 04:29:58;;;;;;;3.60;2.10;;;26.00;46.00;;;;;;5053533;28;20424;-78
2022/07/19 04:32:24;;;;;;;2.37;1.60;;;26.10;46.10;;;;;;5075050;28;20258;-78
2022/07/19 04:34:50;;;;;;;1.73;1.60;;;26.10;46.10;;;;;;5073459;28;20253;-78
2022/07/19 04:37:15;;;;;;;2.37;1.60;;;26.10;46.00;;;;;;5085070;28;20187;-79
2022/07/19 04:39:42;;;;;;;1.83;1.63;;;26.10;46.00;;;;;;5063374;28;20198;-79
2022/07/19 04:42:08;;;;;;;2.10;1.60;;;26.10;46.00;;;;;;5081675;28;20210;-79
2022/07/19 04:44:34;;;;;;;2.50;2.30;;;26.10;46.00;;;;;;5060197;28;20424;-79
2022/07/19 04:46:59;;;;;;;2.03;1.70;;;26.10;46.00;;;;;;5082416;28;20210;-79
2022/07/19 04:49:25;;;;;;;1.87;1.63;;;26.10;46.00;;;;;;5055186;28;20773;-78
2022/07/19 04:51:51;;;;;;;1.90;1.60;;;26.10;46.00;;;;;;5059460;28;20198;-77
2022/07/19 04:54:17;;;;;;;3.60;2.70;;;26.10;46.00;;;;;;5053348;28;20203;-78
2022/07/19 04:56:42;;;;;;;1.83;1.70;;;26.10;46.00;;;;;;5074973;28;20258;-77
2022/07/19 04:59:08;;;;;;;2.17;1.67;;;26.10;46.00;;;;;;5055635;28;20244;-80
2022/07/19 05:01:34;;;;;;;2.60;1.90;;;26.10;46.00;;;;;;5059214;28;20202;-78
2022/07/19 05:04:06;;;;;;;3.70;1.87;;;26.10;46.00;;;;;;5078102;28;20222;-78
2022/07/19 05:06:32;;;;;;;2.57;1.67;;;26.10;46.00;;;;;;5081458;28;20214;-80
2022/07/19 05:08:58;;;;;;;1.87;1.77;;;26.10;46.00;;;;;;5079758;28;20957;-78
2022/07/19 05:11:24;;;;;;;1.93;1.63;;;26.10;46.00;;;;;;5062141;28;20638;-78
2022/07/19 05:13:50;;;;;;;1.83;1.60;;;26.10;46.00;;;;;;5063298;28;20424;-78
2022/07/19 05:16:16;;;;;;;1.90;1.70;;;26.10;46.00;;;;;;5062204;28;20187;-78
2022/07/19 05:18:42;;;;;;;2.50;1.77;;;26.10;46.00;;;;;;5065050;28;20209;-78
2022/07/19 05:21:08;;;;;;;3.20;2.27;;;26.10;46.00;;;;;;5079430;28;20218;-78
2022/07/19 05:23:33;;;;;;;1.90;1.70;;;26.10;46.00;;;;;;5064090;28;20427;-79
2022/07/19 05:25:59;;;;;;;2.70;1.80;;;26.10;46.00;;;;;;5057532;28;20653;-78
2022/07/19 05:28:25;;;;;;;2.20;1.57;;;26.10;46.00;;;;;;5072974;28;20242;-78
2022/07/19 05:34:26;;;;;;;2.47;2.13;;;26.10;46.00;;;;;;5075382;28;20212;-78
2022/07/19 05:36:52;;;;;;;2.17;1.80;;;26.10;46.10;;;;;;5074572;28;20413;-80
2022/07/19 05:39:18;;;;;;;2.63;2.43;;;26.10;46.10;;;;;;5072494;28;20190;-78
2022/07/19 05:41:44;;;;;;;2.63;2.17;;;26.10;46.10;;;;;;5073523;28;20206;-79
2022/07/19 05:44:10;;;;;;;2.47;2.00;;;26.10;46.00;;;;;;5066498;28;20190;-78
2022/07/19 05:46:40;;;;;;;2.87;2.40;;;26.10;46.00;;;;;;5087207;28;20409;-78
2022/07/19 05:49:08;;;;;;;3.40;2.10;;;26.10;46.00;;;;;;5067092;28;20189;-79
2022/07/19 05:51:35;;;;;;;3.53;2.13;;;26.10;46.00;;;;;;5061254;28;20476;-79
2022/07/19 05:54:01;;;;;;;3.17;2.33;;;26.10;46.00;;;;;;5068177;28;20445;-80
2022/07/19 05:56:27;;;;;;;4.80;2.23;;;26.10;46.00;;;;;;5087109;28;20413;-79
2022/07/19 05:58:53;;;;;;;2.50;2.03;;;26.10;46.00;;;;;;5086935;28;20411;-79
2022/07/19 06:02:05;;;;;;;3.00;2.43;;;26.10;46.00;;;;;;5088162;28;20453;-79
2022/07/19 06:04:30;;;;;;;2.67;2.20;;;26.10;46.00;;;;;;5087392;28;20717;-79
2022/07/19 06:06:56;;;;;;;3.40;2.33;;;26.10;46.00;;;;;;5070112;28;20408;-79
2022/07/19 06:09:22;;;;;;;2.50;2.20;;;26.10;46.00;;;;;;5070069;28;20192;-79
2022/07/19 06:11:49;;;;;;;3.50;2.40;;;26.10;46.00;;;;;;5086710;28;20166;-79
2022/07/19 06:14:14;;;;;;;2.30;1.80;;;26.10;46.00;;;;;;5087811;28;20239;-79
2022/07/19 06:20:03;;;;;;;3.00;2.10;;;26.10;46.00;;;;;;5086810;28;20193;-79
2022/07/19 06:22:31;;;;;;;2.37;2.00;;;26.10;46.00;;;;;;5087111;28;20898;-78
2022/07/19 06:24:57;;;;;;;3.67;2.23;;;26.10;46.00;;;;;;5087263;28;20420;-79
2022/07/19 06:27:23;;;;;;;2.47;2.00;;;26.20;46.10;;;;;;5087682;28;20416;-79
2022/07/19 06:29:48;;;;;;;3.23;2.30;;;26.10;46.00;;;;;;5087294;28;20404;-79
2022/07/19 06:32:14;;;;;;;3.63;2.43;;;26.10;46.00;;;;;;5068837;28;20226;-79
2022/07/19 06:34:40;;;;;;;3.27;2.30;;;26.20;46.00;;;;;;5069588;28;20189;-79
2022/07/19 06:37:05;;;;;;;2.30;1.77;;;26.20;46.00;;;;;;5087353;28;20186;-79
2022/07/19 06:39:31;;;;;;;3.00;2.50;;;26.20;46.00;;;;;;5088096;28;20183;-79
2022/07/19 06:41:57;;;;;;;2.53;2.30;;;26.20;46.00;;;;;;5105386;28;20267;-79
2022/07/19 06:44:23;;;;;;;2.50;1.80;;;26.20;46.10;;;;;;5086573;28;20234;-77
2022/07/19 06:46:49;;;;;;;2.90;2.53;;;26.20;46.00;;;;;;5087195;28;20177;-77
2022/07/19 06:49:14;;;;;;;3.30;2.83;;;26.20;46.00;;;;;;5069985;28;20250;-78
2022/07/19 06:51:40;;;;;;;2.60;1.83;;;26.10;45.90;;;;;;5069211;28;20212;-78
2022/07/19 06:54:06;;;;;;;3.50;2.43;;;26.20;46.00;;;;;;5079446;28;20198;-78
2022/07/19 06:56:32;;;;;;;3.33;2.30;;;26.20;46.60;;;;;;5049111;28;20198;-78
2022/07/19 06:58:57;;;;;;;2.40;2.10;;;26.20;46.00;;;;;;5067214;28;20182;-78
2022/07/19 07:01:24;;;;;;;2.70;2.47;;;26.20;46.00;;;;;;5049177;28;20284;-78
2022/07/19 07:03:49;;;;;;;2.87;2.13;;;26.20;46.00;;;;;;5049268;28;20186;-78
2022/07/19 07:06:15;;;;;;;2.40;2.00;;;26.20;46.00;;;;;;5101755;28;20475;-78
2022/07/19 07:08:41;;;;;;;3.23;2.43;;;26.20;46.00;;;;;;5069537;28;20204;-78
2022/07/19 07:11:07;;;;;;;2.70;1.90;;;26.20;46.00;;;;;;5087761;28;20644;-78
2022/07/19 07:13:32;;;;;;;2.83;2.53;;;26.20;46.00;;;;;;5082628;28;20222;-79
2022/07/19 07:15:58;;;;;;;2.77;2.33;;;26.20;46.00;;;;;;5050944;28;20475;-79
2022/07/19 07:18:24;;;;;;;3.17;2.40;;;26.20;46.00;;;;;;5072167;28;20190;-78
2022/07/19 07:20:50;;;;;;;2.30;2.03;;;26.20;46.00;;;;;;5053023;28;20215;-78
2022/07/19 07:23:34;;;;;;;2.63;2.27;;;26.20;46.00;;;;;;5072513;28;20175;-79
2022/07/19 07:26:00;;;;;;;3.17;2.30;;;26.20;46.00;;;;;;5069786;28;20413;-80
2022/07/19 07:28:25;;;;;;;2.50;1.93;;;26.20;46.00;;;;;;5054400;28;20427;-78
2022/07/19 07:30:51;;;;;;;3.60;2.57;;;26.20;46.00;;;;;;5070662;28;20187;-78
2022/07/19 07:33:17;;;;;;;2.43;2.00;;;26.20;46.00;;;;;;5072443;28;20201;-78
2022/07/19 07:35:43;;;;;;;2.70;2.23;;;26.20;46.10;;;;;;5072141;28;20274;-78
2022/07/19 07:38:52;;;;;;;2.80;2.30;;;26.20;46.10;;;;;;5051325;28;20183;-78
2022/07/19 07:41:18;;;;;;;2.30;2.10;;;26.20;46.00;;;;;;5070446;28;20985;-79
2022/07/19 07:43:43;;;;;;;2.40;2.20;;;26.20;46.10;;;;;;5069124;28;20409;-77
2022/07/19 07:46:09;;;;;;;3.43;2.00;;;26.10;46.00;;;;;;5069127;28;20203;-78
2022/07/19 07:48:35;;;;;;;2.37;2.17;;;26.20;46.10;;;;;;5052990;28;20277;-78
2022/07/19 07:51:01;;;;;;;4.13;2.20;;;26.20;46.10;;;;;;5068237;28;20187;-78
2022/07/19 07:53:26;;;;;;;2.83;2.20;;;26.20;46.10;;;;;;5071088;28;20194;-79
2022/07/19 07:55:52;;;;;;;2.63;2.03;;;26.20;46.10;;;;;;5069682;28;20625;-78
2022/07/19 07:58:18;;;;;;;2.30;2.10;;;26.20;46.10;;;;;;5052729;28;20191;-78
2022/07/19 08:00:43;;;;;;;2.80;2.07;;;26.20;46.10;;;;;;5071055;28;20210;-78
2022/07/19 08:04:05;;;;;;;2.53;2.33;;;26.20;46.10;;;;;;5052633;28;20214;-78
2022/07/19 08:06:31;;;;;;;3.30;2.30;;;26.20;46.10;;;;;;5072101;28;20178;-79
2022/07/19 08:08:57;;;;;;;3.27;2.20;;;26.20;46.20;;;;;;5073225;28;20447;-79
2022/07/19 08:11:23;;;;;;;2.87;2.13;;;26.20;46.20;;;;;;5059421;28;20222;-78
2022/07/19 08:13:48;;;;;;;2.13;1.90;;;26.20;46.20;;;;;;5073608;28;20198;-78
2022/07/19 08:16:33;;;;;;;2.50;2.30;;;26.20;46.20;;;;;;5075733;28;20232;-78
2022/07/19 08:18:59;;;;;;;3.33;2.47;;;26.20;46.20;;;;;;5074928;28;20206;-79
2022/07/19 08:21:24;;;;;;;2.33;2.00;;;26.20;46.20;;;;;;5059798;28;20520;-78
2022/07/19 08:23:51;;;;;;;4.30;2.70;;;26.20;46.20;;;;;;5074970;28;20542;-78
2022/07/19 08:26:17;;;;;;;2.37;2.17;;;26.20;46.80;;;;;;5076007;28;20209;-78
2022/07/19 08:28:43;;;;;;;2.83;2.33;;;26.20;46.20;;;;;;5058237;28;20413;-79
2022/07/19 08:31:09;;;;;;;2.80;2.50;;;26.20;46.20;;;;;;5057459;28;20190;-79
2022/07/19 08:33:36;;;;;;;3.43;2.30;;;26.20;46.20;;;;;;5066111;28;20190;-78
2022/07/19 08:36:02;;;;;;;4.13;2.20;;;26.20;46.20;;;;;;5090374;28;20489;-80
2022/07/19 08:38:28;;;;;;;3.10;2.40;;;26.20;46.20;;;;;;5090085;28;20887;-78
2022/07/19 08:40:55;;;;;;;2.53;2.17;;;26.20;46.20;;;;;;5071291;28;20233;-79
2022/07/19 08:43:22;;;;;;;2.23;2.03;;;26.20;46.20;;;;;;5089728;28;20625;-79
2022/07/19 08:45:49;;;;;;;2.30;2.10;;;26.20;46.20;;;;;;5088993;28;20401;-79
2022/07/19 08:48:15;;;;;;;2.87;2.30;;;26.20;46.30;;;;;;5072113;28;20412;-79
2022/07/19 08:50:41;;;;;;;3.00;2.43;;;26.20;46.30;;;;;;5071586;28;20420;-79
2022/07/19 08:53:07;;;;;;;2.60;2.40;;;26.20;46.30;;;;;;5088513;28;20879;-79
2022/07/19 08:55:32;;;;;;;3.70;2.67;;;26.20;46.30;;;;;;5088736;28;20415;-79
2022/07/19 08:58:00;;;;;;;2.50;2.30;;;26.20;46.30;;;;;;5088875;28;20209;-78
2022/07/19 09:00:30;;;;;;;2.33;2.07;;;26.20;46.30;;;;;;5071382;28;20210;-78
2022/07/19 09:03:06;;;;;;;2.70;2.23;;;26.20;46.30;;;;;;5059822;28;20414;-80
2022/07/19 09:05:34;;;;;;;3.37;2.33;;;26.20;46.30;;;;;;5054877;28;20409;-79
2022/07/19 09:08:00;;;;;;;4.80;2.60;;;26.20;46.30;;;;;;5075645;28;20426;-79
2022/07/19 09:10:25;;;;;;;2.53;2.10;;;26.20;46.30;;;;;;5077109;28;20468;-83
2022/07/19 09:12:58;;;;;;;2.80;2.03;;;26.20;46.30;;;;;;5059727;28;20209;-79
2022/07/19 09:15:38;;;;;;;3.43;2.60;;;26.20;46.30;;;;;;5060220;28;20197;-79
2022/07/19 09:18:17;;;;;;;3.97;2.33;;;26.30;46.40;;;;;;5059823;28;20416;-80
2022/07/19 09:20:44;;;;;;;2.10;1.90;;;26.20;46.30;;;;;;5078499;28;20480;-80
2022/07/19 09:23:10;;;;;;;2.67;2.30;;;26.20;46.30;;;;;;5058644;28;20413;-79
2022/07/19 09:25:46;;;;;;;2.50;2.30;;;26.20;46.30;;;;;;5061460;28;20409;-79
2022/07/19 09:28:12;;;;;;;5.17;2.20;;;26.20;46.30;;;;;;5078382;28;20425;-79
2022/07/19 09:30:44;;;;;;;3.27;2.53;;;26.20;46.30;;;;;;5081803;28;20447;-79
2022/07/19 09:33:46;;;;;;;2.50;2.30;;;26.20;46.30;;;;;;5078350;28;20424;-79
2022/07/19 09:36:14;;;;;;;2.00;1.80;;;26.20;46.30;;;;;;5068455;28;20425;-79
2022/07/19 09:38:43;;;;;;;2.57;2.10;;;26.20;46.30;;;;;;5060742;28;20971;-79
2022/07/19 09:41:13;;;;;;;2.50;2.20;;;26.20;46.30;;;;;;5060873;28;20476;-79
2022/07/19 09:43:54;;;;;;;2.20;2.00;;;26.20;46.30;;;;;;5082024;28;20424;-79
2022/07/19 09:46:40;;;;;;;2.33;1.60;;;26.20;46.30;;;;;;5080494;28;20459;-79
2022/07/19 09:49:10;;;;;;;2.90;2.37;;;26.20;46.30;;;;;;5078349;28;20401;-79
2022/07/19 09:51:44;;;;;;;2.53;2.27;;;26.20;46.30;;;;;;5060190;28;20523;-80
2022/07/19 09:54:12;;;;;;;2.13;1.93;;;26.20;46.30;;;;;;5061163;28;20471;-79
2022/07/19 09:56:40;;;;;;;3.53;2.40;;;26.20;46.80;;;;;;5081469;28;20436;-79
2022/07/19 09:59:06;;;;;;;2.83;2.30;;;26.20;46.20;;;;;;5080937;28;20739;-79
2022/07/19 10:01:33;;;;;;;3.20;2.53;;;26.20;46.20;;;;;;5083430;28;20876;-81
2022/07/19 10:04:05;;;;;;;3.93;2.40;;;26.20;46.20;;;;;;5065621;28;20586;-79
2022/07/19 10:06:33;;;;;;;2.47;2.07;;;26.20;46.20;;;;;;5062743;28;20414;-78
2022/07/19 10:09:01;;;;;;;3.70;2.40;;;26.20;46.20;;;;;;5086835;28;20409;-79
2022/07/19 10:11:29;;;;;;;2.43;1.90;;;26.20;46.10;;;;;;5088308;28;20412;-79
2022/07/19 10:13:56;;;;;;;2.37;1.70;;;26.20;46.10;;;;;;5086916;28;20443;-78
2022/07/19 10:16:35;;;;;;;3.77;2.40;;;26.20;46.10;;;;;;5071041;28;20420;-78
2022/07/19 10:19:04;;;;;;;4.47;2.77;;;26.20;46.10;;;;;;5070271;28;20421;-80
2022/07/19 10:21:31;;;;;;;5.53;3.30;;;26.20;46.10;;;;;;5070394;28;20522;-79
2022/07/19 10:23:56;;;;;;;5.17;3.37;;;26.20;46.00;;;;;;5088709;28;20409;-79
2022/07/19 10:29:44;;;;;;;9.20;4.10;;;26.20;46.00;;;;;;5087926;28;20237;-78
2022/07/19 10:32:14;;;;;;;14.53;3.90;;;26.20;46.00;;;;;;5075901;28;20406;-78
2022/07/19 10:34:40;;;;;;;9.90;4.70;;;26.20;46.10;;;;;;5068197;28;20477;-79
2022/07/19 10:37:07;;;;;;;8.83;4.73;;;26.20;46.70;;;;;;5073048;28;20415;-81
2022/07/19 10:39:34;;;;;;;6.80;4.47;;;26.20;46.10;;;;;;5055714;28;20418;-80
2022/07/19 10:42:17;;;;;;;8.50;4.90;;;26.20;46.10;;;;;;5071266;28;20465;-81
2022/07/19 10:44:59;;;;;;;8.33;5.33;;;26.30;46.20;;;;;;5055545;28;20447;-80
2022/07/19 10:47:40;;;;;;;12.60;5.37;;;26.30;46.20;;;;;;5055617;28;20437;-80
2022/07/19 10:50:21;;;;;;;7.30;5.50;;;26.20;46.20;;;;;;5056109;28;20422;-81
2022/07/19 10:52:48;;;;;;;8.70;5.20;;;26.20;46.20;;;;;;5056205;28;20417;-81
2022/07/19 10:55:34;;;;;;;10.87;5.30;;;26.20;46.20;;;;;;5072660;28;20413;-79
2022/07/19 10:58:06;;;;;;;13.43;5.20;;;26.30;46.30;;;;;;5073048;28;20398;-79
2022/07/19 11:00:43;;;;;;;7.27;4.20;;;26.20;46.30;;;;;;5055684;28;20487;-81
2022/07/19 11:03:24;;;;;;;8.03;4.17;;;26.20;46.30;;;;;;5072922;28;20401;-83
2022/07/19 11:05:59;;;;;;;5.73;3.37;;;26.20;46.30;;;;;;5052747;28;20444;-80
2022/07/19 11:08:35;;;;;;;8.83;5.17;;;26.30;46.30;;;;;;5070886;28;20504;-80
2022/07/19 11:11:05;;;;;;;5.57;4.10;;;26.20;46.30;;;;;;5056492;28;20428;-80
2022/07/19 11:13:30;;;;;;;9.23;4.20;;;26.20;46.30;;;;;;5073739;28;20472;-81
2022/07/19 11:15:57;;;;;;;5.37;3.80;;;26.20;46.30;;;;;;5074217;28;20405;-80
2022/07/19 11:18:22;;;;;;;6.97;4.10;;;26.20;46.20;;;;;;5057657;28;20187;-80
2022/07/19 11:20:52;;;;;;;8.97;4.80;;;26.30;46.30;;;;;;5074385;28;20460;-80
2022/07/19 11:23:20;;;;;;;6.00;4.00;;;26.30;46.30;;;;;;5058264;28;20175;-80
2022/07/19 11:25:46;;;;;;;7.97;4.13;;;26.30;46.30;;;;;;5074952;28;20488;-81
2022/07/19 11:28:24;;;;;;;6.30;3.80;;;26.30;46.20;;;;;;5056910;28;20436;-79
2022/07/19 11:30:51;;;;;;;4.87;3.60;;;26.30;46.20;;;;;;5074564;28;20589;-82
2022/07/19 11:33:19;;;;;;;5.77;3.30;;;26.30;46.20;;;;;;5072847;28;20444;-79
2022/07/19 11:36:00;;;;;;;5.50;3.70;;;26.30;46.20;;;;;;5057881;28;20406;-80
2022/07/19 11:38:42;;;;;;;8.13;4.70;;;26.30;46.20;;;;;;5074626;28;20401;-79
2022/07/19 11:44:12;;;;;;;6.63;4.03;;;26.30;46.20;;;;;;5078739;28;20421;-79
2022/07/19 11:46:40;;;;;;;5.50;3.83;;;26.30;46.20;;;;;;5060926;28;20413;-79
2022/07/19 11:49:08;;;;;;;5.30;3.70;;;26.30;46.20;;;;;;5079061;28;20254;-80
2022/07/19 11:51:34;;;;;;;6.93;3.53;;;26.30;46.20;;;;;;5077186;28;20425;-79
2022/07/19 11:54:02;;;;;;;5.40;4.00;;;26.30;46.20;;;;;;5077246;28;20409;-79
2022/07/19 11:56:30;;;;;;;4.93;3.67;;;26.30;46.20;;;;;;5077734;28;20413;-79
2022/07/19 11:58:58;;;;;;;4.40;3.47;;;26.30;46.20;;;;;;5075291;28;20413;-79
2022/07/19 12:01:39;;;;;;;5.80;3.67;;;26.30;46.20;;;;;;5075470;28;20444;-81
2022/07/19 12:04:10;;;;;;;6.57;3.03;;;26.30;46.20;;;;;;5074485;28;20418;-81
2022/07/19 12:06:47;;;;;;;6.23;3.43;;;26.30;46.20;;;;;;5057531;28;20414;-80
2022/07/19 12:09:19;;;;;;;3.23;2.70;;;26.30;46.20;;;;;;5057362;28;20413;-81
2022/07/19 12:11:52;;;;;;;4.77;3.10;;;26.30;46.20;;;;;;5069080;28;20416;-80
2022/07/19 12:14:19;;;;;;;3.70;3.37;;;26.30;46.20;;;;;;5068744;28;20511;-80
2022/07/19 12:16:46;;;;;;;5.03;3.20;;;26.30;46.20;;;;;;5075447;28;20405;-81
2022/07/19 12:26:04;;;;;;;3.10;2.80;;;26.30;46.20;;;;;;5088084;28;20388;-80
2022/07/19 12:28:29;;;;;;;4.77;3.00;;;26.30;46.20;;;;;;5079504;28;20924;-80
2022/07/19 12:31:05;;;;;;;6.90;2.63;;;26.30;46.20;;;;;;5093704;28;20408;-80
2022/07/19 12:33:31;;;;;;;3.80;3.23;;;26.30;46.20;;;;;;5075358;28;20178;-80
2022/07/19 12:35:58;;;;;;;4.97;2.77;;;26.30;46.20;;;;;;5077063;28;20428;-81
2022/07/19 12:38:35;;;;;;;4.50;3.03;;;26.30;46.20;;;;;;5093949;28;20412;-80
2022/07/19 12:41:06;;;;;;;3.60;2.83;;;26.30;46.10;;;;;;5076541;28;21042;-80
2022/07/19 12:43:33;;;;;;;5.60;2.70;;;26.30;46.10;;;;;;5077823;28;20417;-80
2022/07/19 12:46:01;;;;;;;4.50;3.00;;;26.30;46.70;;;;;;5096303;28;20401;-79
2022/07/19 12:48:27;;;;;;;3.20;2.70;;;26.30;46.10;;;;;;5078565;28;20420;-81
2022/07/19 12:50:53;;;;;;;5.07;2.93;;;26.30;46.20;;;;;;5096530;28;20413;-81
2022/07/19 12:53:20;;;;;;;4.93;2.70;;;26.30;46.20;;;;;;5077909;28;20451;-80
2022/07/19 12:55:47;;;;;;;3.90;2.63;;;26.30;46.20;;;;;;5077003;28;20254;-80
2022/07/19 13:01:06;;;;;;;3.67;2.80;;;26.40;46.80;;;;;;5058565;28;20455;-78
2022/07/19 13:03:32;;;;;;;4.00;2.70;;;26.40;46.20;;;;;;5086519;28;20408;-79
2022/07/19 13:05:59;;;;;;;4.90;3.00;;;26.30;46.20;;;;;;5087096;28;20404;-79
2022/07/19 13:08:26;;;;;;;5.63;2.90;;;26.30;46.20;;;;;;5086768;28;20397;-79
2022/07/19 13:10:54;;;;;;;4.00;2.60;;;26.40;46.20;;;;;;5087670;28;20404;-78
2022/07/19 13:13:20;;;;;;;3.53;2.77;;;26.40;46.20;;;;;;5086662;28;20539;-78
2022/07/19 13:15:46;;;;;;;5.77;2.50;;;26.40;46.20;;;;;;5086695;28;20502;-78
2022/07/19 13:18:21;;;;;;;2.97;2.53;;;26.40;46.20;;;;;;5086328;28;20185;-79
2022/07/19 13:20:48;;;;;;;4.63;2.80;;;26.40;46.10;;;;;;5086641;28;20456;-80
2022/07/19 13:23:13;;;;;;;4.23;3.13;;;26.40;46.20;;;;;;5068320;28;20420;-80
2022/07/19 13:25:39;;;;;;;2.70;2.50;;;26.40;46.20;;;;;;5086307;28;20409;-80
2022/07/19 13:28:05;;;;;;;4.40;2.90;;;26.40;46.10;;;;;;5069590;28;20198;-80
2022/07/19 13:31:12;;;;;;;3.57;3.27;;;26.40;46.10;;;;;;5068913;28;20416;-79
2022/07/19 13:33:38;;;;;;;3.03;2.60;;;26.40;46.10;;;;;;5087365;28;20178;-79